createdAt,value
2019-03-19T00:02:24.285Z,100748.84
2019-03-19T00:05:27.730Z,100753.19
2019-03-19T00:08:31.240Z,100754.14
2019-03-19T00:11:34.857Z,100760.77
2019-03-19T00:14:38.281Z,100767.08
2019-03-19T00:17:41.763Z,100765.66
2019-03-19T00:20:45.264Z,100764.06
2019-03-19T00:23:49.760Z,100767.58
2019-03-19T00:26:53.278Z,100777.41
2019-03-19T00:29:56.775Z,100777.41
2019-03-19T00:33:00.279Z,100784.98
2019-03-19T00:36:03.775Z,100781.55
2019-03-19T00:39:07.646Z,100777.20
2019-03-19T00:42:11.186Z,100778.91
2019-03-19T00:45:15.701Z,100782.51
2019-03-19T00:48:19.212Z,100782.51
2019-03-19T00:51:22.718Z,100788.36
2019-03-19T00:54:27.244Z,100791.09
2019-03-19T00:57:30.849Z,100787.90
2019-03-19T01:00:34.453Z,100785.42
2019-03-19T01:03:37.951Z,100787.21
2019-03-19T01:06:41.455Z,100789.48
2019-03-19T01:09:45.963Z,100792.23
2019-03-19T01:12:49.472Z,100798.39
2019-03-19T01:15:52.974Z,100797.44
2019-03-19T01:18:56.471Z,100788.34
2019-03-19T01:22:01.109Z,100792.72
2019-03-19T01:25:05.405Z,100788.75
2019-03-19T01:28:09.016Z,100789.20
2019-03-19T01:31:12.516Z,100790.99
2019-03-19T01:34:16.022Z,100785.32
2019-03-19T01:37:19.619Z,100783.63
2019-03-19T01:40:23.018Z,100787.02
2019-03-19T01:43:26.522Z,100789.84
2019-03-19T01:46:31.056Z,100790.71
2019-03-19T01:49:34.570Z,100798.28
2019-03-19T01:52:38.049Z,100794.22
2019-03-19T01:55:41.653Z,100799.70
2019-03-19T01:58:45.260Z,100799.33
2019-03-19T02:01:48.839Z,100805.00
2019-03-19T02:04:52.475Z,100804.62
2019-03-19T02:07:56.994Z,100811.25
2019-03-19T02:11:00.485Z,100822.22
2019-03-19T02:14:05.127Z,100825.41
2019-03-19T02:17:08.709Z,100825.82
2019-03-19T02:20:12.246Z,100825.41
2019-03-19T02:23:15.706Z,100831.58
2019-03-19T02:26:19.212Z,100838.66
2019-03-19T02:29:22.720Z,100837.33
2019-03-19T02:32:26.218Z,100843.59
2019-03-19T02:35:29.730Z,100837.14
2019-03-19T02:38:33.226Z,100844.13
2019-03-19T02:41:36.714Z,100845.95
2019-03-19T02:44:40.203Z,100853.03
2019-03-19T02:47:43.795Z,100852.66
2019-03-19T02:50:47.204Z,100847.36
2019-03-19T02:53:51.379Z,100852.66
2019-03-19T02:56:54.831Z,100857.14
2019-03-19T02:59:58.440Z,100867.23
2019-03-19T03:03:02.065Z,100873.48
2019-03-19T03:06:05.657Z,100875.31
2019-03-19T03:09:09.265Z,100876.64
2019-03-19T03:12:13.780Z,100883.27
2019-03-19T03:15:17.278Z,100889.42
2019-03-19T03:18:22.832Z,100895.18
2019-03-19T03:21:27.387Z,100894.67
2019-03-19T03:24:31.888Z,100896.42
2019-03-19T03:27:35.402Z,100894.23
2019-03-19T03:30:38.926Z,100900.56
2019-03-19T03:33:42.610Z,100909.75
2019-03-19T03:36:46.088Z,100911.62
2019-03-19T03:39:50.612Z,100909.75
2019-03-19T03:42:54.147Z,100910.78
2019-03-19T03:45:57.604Z,100913.52
2019-03-19T03:49:01.177Z,100927.14
2019-03-19T03:52:05.653Z,100919.65
2019-03-19T03:55:09.331Z,100927.71
2019-03-19T03:58:13.873Z,100924.57
2019-03-19T04:01:17.369Z,100933.39
2019-03-19T04:04:20.874Z,100927.30
2019-03-19T04:07:30.324Z,100935.25
2019-03-19T04:10:33.804Z,100940.55
2019-03-19T04:13:37.343Z,100944.52
2019-03-19T04:16:40.818Z,100947.17
2019-03-19T04:19:44.343Z,100942.04
2019-03-19T04:22:47.810Z,100945.09
2019-03-19T04:25:51.343Z,100951.72
2019-03-19T04:28:54.826Z,100957.93
2019-03-19T04:31:58.322Z,100952.63
2019-03-19T04:35:04.477Z,100971.58
2019-03-19T04:38:09.103Z,100965.87
2019-03-19T04:41:18.683Z,100967.69
2019-03-19T04:44:22.178Z,100969.93
2019-03-19T04:47:25.662Z,100971.17
2019-03-19T04:50:29.151Z,100974.39
2019-03-19T04:53:32.654Z,100977.58
2019-03-19T04:56:36.167Z,100984.12
2019-03-19T04:59:40.684Z,100989.42
2019-03-19T05:02:44.190Z,100992.53
2019-03-19T05:05:47.838Z,100992.16
2019-03-19T05:08:51.399Z,100990.28
2019-03-19T05:11:55.946Z,100997.07
2019-03-19T05:14:59.438Z,101003.61
2019-03-19T05:18:02.925Z,101009.94
2019-03-19T05:21:06.432Z,101004.64
2019-03-19T05:24:09.937Z,101006.34
2019-03-19T05:27:14.540Z,101012.02
2019-03-19T05:30:18.261Z,101012.67
2019-03-19T05:33:21.859Z,101015.23
2019-03-19T05:36:25.368Z,101011.42
2019-03-19T05:39:28.861Z,101012.26
2019-03-19T05:42:32.387Z,101023.72
2019-03-19T05:45:35.853Z,101032.61
2019-03-19T05:48:39.448Z,101035.26
2019-03-19T05:51:43.068Z,101038.74
2019-03-19T05:54:46.627Z,101036.02
2019-03-19T05:57:50.693Z,101043.20
2019-03-19T06:00:54.626Z,101041.95
2019-03-19T06:03:58.082Z,101045.06
2019-03-19T06:07:01.598Z,101053.01
2019-03-19T06:10:05.479Z,101058.23
2019-03-19T06:13:10.053Z,101065.38
2019-03-19T06:16:13.638Z,101065.30
2019-03-19T06:19:17.244Z,101071.55
2019-03-19T06:22:20.747Z,101068.52
2019-03-19T06:25:24.263Z,101071.55
2019-03-19T06:28:27.734Z,101068.98
2019-03-19T06:31:31.246Z,101071.55
2019-03-19T06:34:34.767Z,101072.49
2019-03-19T06:37:38.278Z,101081.39
2019-03-19T06:40:43.787Z,101081.77
2019-03-19T06:43:47.283Z,101085.36
2019-03-19T06:46:50.809Z,101093.76
2019-03-19T06:49:54.390Z,101091.98
2019-03-19T06:52:58.001Z,101083.63
2019-03-19T06:56:01.524Z,101087.59
2019-03-19T06:59:06.070Z,101094.22
2019-03-19T07:02:09.520Z,101097.73
2019-03-19T07:05:13.098Z,101099.13
2019-03-19T07:08:17.653Z,101104.80
2019-03-19T07:11:23.108Z,101105.75
2019-03-19T07:14:26.694Z,101115.81
2019-03-19T07:17:30.373Z,101114.64
2019-03-19T07:20:34.017Z,101113.70
2019-03-19T07:23:38.573Z,101122.89
2019-03-19T07:26:42.041Z,101131.52
2019-03-19T07:29:45.528Z,101132.30
2019-03-19T07:32:49.044Z,101139.45
2019-03-19T07:35:52.546Z,101136.81
2019-03-19T07:38:56.065Z,101139.30
2019-03-19T07:41:59.567Z,101141.34
2019-03-19T07:45:03.072Z,101138.31
2019-03-19T07:48:06.557Z,101138.12
2019-03-19T07:51:10.048Z,101140.69
2019-03-19T07:54:13.535Z,101144.66
2019-03-19T07:57:18.106Z,101148.48
2019-03-19T08:00:22.603Z,101153.70
2019-03-19T08:03:26.094Z,101154.00
2019-03-19T08:06:29.645Z,101158.38
2019-03-19T08:09:33.135Z,101157.06
2019-03-19T08:12:36.792Z,101157.44
2019-03-19T08:15:41.343Z,101159.59
2019-03-19T08:18:44.823Z,101169.61
2019-03-19T08:21:48.441Z,101167.75
2019-03-19T08:24:52.055Z,101170.41
2019-03-19T08:27:55.612Z,101180.84
2019-03-19T08:30:59.256Z,101181.22
2019-03-19T08:34:02.760Z,101178.57
2019-03-19T08:37:06.236Z,101193.75
2019-03-19T08:40:10.718Z,101189.47
2019-03-19T08:43:14.276Z,101198.67
2019-03-19T08:46:17.782Z,101213.62
2019-03-19T08:49:22.334Z,101217.52
2019-03-19T08:52:26.010Z,101227.81
2019-03-19T08:55:29.489Z,101236.55
2019-03-19T08:58:33.010Z,101234.66
2019-03-19T09:01:37.599Z,101237.31
2019-03-19T09:04:41.322Z,101240.34
2019-03-19T09:07:44.946Z,101248.13
2019-03-19T09:10:48.553Z,101249.46
2019-03-19T09:13:52.140Z,101246.73
2019-03-19T09:16:55.767Z,101247.22
2019-03-19T09:19:59.338Z,101248.39
2019-03-19T09:23:02.964Z,101246.50
2019-03-19T09:26:07.604Z,101246.50
2019-03-19T09:29:16.794Z,101245.88
2019-03-19T09:32:16.482Z,101257.89
2019-03-19T09:35:19.987Z,101248.99
2019-03-19T09:38:30.654Z,101253.19
2019-03-19T09:41:35.110Z,101253.03
2019-03-19T09:44:38.631Z,101248.59
2019-03-19T09:47:42.082Z,101240.95
2019-03-19T09:50:46.655Z,101240.48
2019-03-19T09:53:50.153Z,101246.47
2019-03-19T09:56:53.667Z,101238.14
2019-03-19T09:59:57.110Z,101239.84
2019-03-19T10:03:00.656Z,101237.56
2019-03-19T10:06:13.649Z,101241.00
2019-03-19T10:09:09.513Z,101232.97
2019-03-19T10:12:14.061Z,101236.38
2019-03-19T10:15:17.825Z,101244.25
2019-03-19T10:18:22.242Z,101245.12
2019-03-19T10:21:25.771Z,101247.85
2019-03-19T10:24:29.249Z,101235.38
2019-03-19T10:27:32.702Z,101247.69
2019-03-19T10:30:36.164Z,101249.39
2019-03-19T10:33:39.775Z,101256.44
2019-03-19T10:36:43.255Z,101259.09
2019-03-19T10:39:46.685Z,101255.48
2019-03-19T10:42:50.365Z,101258.89
2019-03-19T10:45:53.855Z,101259.69
2019-03-19T10:48:57.358Z,101261.39
2019-03-19T10:52:00.964Z,101257.81
2019-03-19T10:55:04.503Z,101255.62
2019-03-19T10:58:11.250Z,101263.20
2019-03-19T11:01:13.113Z,101265.58
2019-03-19T11:04:17.626Z,101254.05
2019-03-19T11:07:21.139Z,101254.81
2019-03-19T11:10:24.619Z,101250.30
2019-03-19T11:13:28.152Z,101252.95
2019-03-19T11:16:31.663Z,101249.27
2019-03-19T11:19:35.143Z,101246.56
2019-03-19T11:22:38.660Z,101257.02
2019-03-19T11:25:42.133Z,101239.39
2019-03-19T11:28:45.641Z,101243.20
2019-03-19T11:31:50.292Z,101241.09
2019-03-19T11:34:53.963Z,101247.08
2019-03-19T11:37:57.578Z,101243.59
2019-03-19T11:41:01.168Z,101244.91
2019-03-19T11:44:04.805Z,101243.29
2019-03-19T11:47:08.397Z,101246.23
2019-03-19T11:50:14.444Z,101246.23
2019-03-19T11:53:17.945Z,101247.94
2019-03-19T11:56:21.448Z,101246.61
2019-03-19T11:59:25.977Z,101235.62
2019-03-19T12:02:29.504Z,101238.66
2019-03-19T12:05:34.031Z,101238.66
2019-03-19T12:08:37.666Z,101239.98
2019-03-19T12:11:41.282Z,101238.20
2019-03-19T12:14:47.251Z,101242.84
2019-03-19T12:17:51.285Z,101237.75
2019-03-19T12:20:54.783Z,101239.48
2019-03-19T12:23:59.425Z,101241.19
2019-03-19T12:27:03.000Z,101243.84
2019-03-19T12:30:06.618Z,101244.63
2019-03-19T12:33:10.248Z,101245.00
2019-03-19T12:36:19.662Z,101244.44
2019-03-19T12:39:23.280Z,101246.17
2019-03-19T12:42:27.132Z,101245.67
2019-03-19T12:45:31.620Z,101245.22
2019-03-19T12:48:35.119Z,101251.31
2019-03-19T12:51:38.596Z,101252.64
2019-03-19T12:54:42.147Z,101251.85
2019-03-19T12:57:45.714Z,101245.59
2019-03-19T13:00:49.323Z,101254.80
2019-03-19T13:03:53.820Z,101248.25
2019-03-19T13:06:58.810Z,101240.98
2019-03-19T13:10:02.266Z,101240.91
2019-03-19T13:13:05.792Z,101241.28
2019-03-19T13:16:09.378Z,101242.23
2019-03-19T13:19:12.976Z,101245.63
2019-03-19T13:22:16.492Z,101257.20
2019-03-19T13:25:20.018Z,101264.41
2019-03-19T13:28:23.476Z,101264.41
2019-03-19T13:31:27.167Z,101268.85
2019-03-19T13:34:31.793Z,101274.62
2019-03-19T13:37:35.438Z,101263.63
2019-03-19T13:40:38.989Z,101274.24
2019-03-19T13:43:43.555Z,101284.86
2019-03-19T13:46:47.152Z,101279.63
2019-03-19T13:49:50.666Z,101275.19
2019-03-19T13:52:55.171Z,101277.84
2019-03-19T13:55:58.676Z,101280.09
2019-03-19T13:59:02.173Z,101271.88
2019-03-19T14:02:05.673Z,101278.59
2019-03-19T14:05:09.759Z,101272.66
2019-03-19T14:08:13.290Z,101263.46
2019-03-19T14:11:16.817Z,101264.63
2019-03-19T14:14:20.396Z,101273.34
2019-03-19T14:17:24.020Z,101275.37
2019-03-19T14:20:28.532Z,101280.27
2019-03-19T14:23:32.044Z,101280.76
2019-03-19T14:26:35.545Z,101285.48
2019-03-19T14:29:41.181Z,101289.09
2019-03-19T14:32:44.878Z,101287.56
2019-03-19T14:35:48.608Z,101287.85
2019-03-19T14:38:52.194Z,101287.94
2019-03-19T14:41:55.915Z,101295.89
2019-03-19T14:44:59.381Z,101301.61
2019-03-19T14:48:02.933Z,101302.16
2019-03-19T14:51:07.434Z,101306.92
2019-03-19T14:54:11.034Z,101312.69
2019-03-19T14:57:14.627Z,101314.47
2019-03-19T15:00:18.239Z,101317.91
2019-03-19T15:03:21.823Z,101314.09
2019-03-19T15:06:25.331Z,101325.17
2019-03-19T15:09:28.953Z,101324.17
2019-03-19T15:12:32.626Z,101321.89
2019-03-19T15:15:36.287Z,101322.44
2019-03-19T15:18:39.763Z,101329.07
2019-03-19T15:21:43.303Z,101330.97
2019-03-19T15:24:46.860Z,101338.36
2019-03-19T15:27:50.555Z,101336.12
2019-03-19T15:30:54.273Z,101337.11
2019-03-19T15:34:01.995Z,101331.80
2019-03-19T15:37:05.459Z,101327.91
2019-03-19T15:40:11.449Z,101335.03
2019-03-19T15:43:15.024Z,101342.78
2019-03-19T15:46:18.632Z,101342.13
2019-03-19T15:49:22.195Z,101341.59
2019-03-19T15:52:27.670Z,101348.98
2019-03-19T15:55:31.245Z,101340.26
2019-03-19T15:58:34.894Z,101348.22
2019-03-19T16:01:40.587Z,101346.68
2019-03-19T16:04:45.177Z,101355.48
2019-03-19T16:07:48.680Z,101359.00
2019-03-19T16:10:53.301Z,101359.95
2019-03-19T16:13:58.018Z,101366.02
2019-03-19T16:17:01.638Z,101365.25
2019-03-19T16:20:06.351Z,101369.69
2019-03-19T16:23:09.790Z,101369.40
2019-03-19T16:26:14.409Z,101381.17
2019-03-19T16:29:17.883Z,101390.05
2019-03-19T16:32:21.389Z,101392.70
2019-03-19T16:35:24.911Z,101399.84
2019-03-19T16:38:28.379Z,101405.60
2019-03-19T16:41:31.913Z,101400.83
2019-03-19T16:44:36.414Z,101400.83
2019-03-19T16:47:39.918Z,101405.76
2019-03-19T16:50:45.479Z,101406.14
2019-03-19T16:53:48.961Z,101416.75
2019-03-19T16:56:52.466Z,101421.22
2019-03-19T16:59:55.970Z,101423.00
2019-03-19T17:02:59.499Z,101430.97
2019-03-19T17:06:03.118Z,101434.48
2019-03-19T17:09:07.988Z,101435.89
2019-03-19T17:12:11.721Z,101440.25
2019-03-19T17:15:15.593Z,101448.59
2019-03-19T17:18:19.216Z,101452.58
2019-03-19T17:21:22.889Z,101450.41
2019-03-19T17:24:26.424Z,101454.47
2019-03-19T17:27:30.174Z,101452.58
2019-03-19T17:30:33.664Z,101453.45
2019-03-19T17:33:37.240Z,101458.38
2019-03-19T17:36:41.880Z,101458.04
2019-03-19T17:39:45.376Z,101466.87
2019-03-19T17:42:48.876Z,101474.37
2019-03-19T17:45:53.454Z,101480.21
2019-03-19T17:48:57.108Z,101482.87
2019-03-19T17:52:01.610Z,101482.33
2019-03-19T17:55:06.022Z,101489.88
2019-03-19T17:58:09.742Z,101491.63
2019-03-19T18:01:17.403Z,101497.84
2019-03-19T18:04:18.695Z,101507.13
2019-03-19T18:07:22.219Z,101508.45
2019-03-19T18:10:25.724Z,101509.89
2019-03-19T18:13:30.234Z,101506.67
2019-03-19T18:16:33.752Z,101507.55
2019-03-19T18:19:38.260Z,101513.23
2019-03-19T18:22:41.838Z,101517.59
2019-03-19T18:25:45.631Z,101517.21
2019-03-19T18:28:49.199Z,101528.77
2019-03-19T18:31:54.721Z,101525.25
2019-03-19T18:34:58.306Z,101529.30
2019-03-19T18:38:03.775Z,101535.94
2019-03-19T18:41:07.276Z,101542.95
2019-03-19T18:44:10.777Z,101541.25
2019-03-19T18:47:14.283Z,101541.63
2019-03-19T18:50:17.777Z,101551.86
2019-03-19T18:53:21.308Z,101551.48
2019-03-19T18:56:25.797Z,101554.13
2019-03-19T18:59:29.395Z,101551.48
2019-03-19T19:02:33.117Z,101551.48
2019-03-19T19:05:36.704Z,101558.11
2019-03-19T19:08:40.227Z,101561.94
2019-03-19T19:11:43.704Z,101568.16
2019-03-19T19:14:47.268Z,101566.30
2019-03-19T19:17:50.714Z,101562.78
2019-03-19T19:20:55.255Z,101567.25
2019-03-19T19:23:58.838Z,101575.74
2019-03-19T19:27:03.526Z,101582.76
2019-03-19T19:30:08.510Z,101579.80
2019-03-19T19:33:13.147Z,101585.97
2019-03-19T19:36:16.645Z,101583.70
2019-03-19T19:39:21.586Z,101590.34
2019-03-19T19:42:25.067Z,101590.27
2019-03-19T19:45:28.668Z,101596.02
2019-03-19T19:48:32.312Z,101597.84
2019-03-19T19:51:35.957Z,101600.50
2019-03-19T19:54:40.523Z,101590.72
2019-03-19T19:57:44.317Z,101600.95
2019-03-19T20:00:49.018Z,101596.97
2019-03-19T20:03:52.637Z,101602.13
2019-03-19T20:06:57.217Z,101604.93
2019-03-19T20:10:00.670Z,101611.95
2019-03-19T20:13:07.301Z,101608.77
2019-03-19T20:16:10.948Z,101616.34
2019-03-19T20:19:16.605Z,101615.86
2019-03-19T20:22:20.221Z,101616.80
2019-03-19T20:25:23.729Z,101618.44
2019-03-19T20:28:30.298Z,101615.40
2019-03-19T20:31:33.778Z,101619.00
2019-03-19T20:34:37.391Z,101620.25
2019-03-19T20:37:41.094Z,101625.63
2019-03-19T20:40:44.791Z,101626.02
2019-03-19T20:43:48.410Z,101629.05
2019-03-19T20:46:52.004Z,101623.36
2019-03-19T20:49:56.148Z,101624.69
2019-03-19T20:52:59.628Z,101631.32
2019-03-19T20:56:04.304Z,101636.25
2019-03-19T20:59:07.837Z,101640.99
2019-03-19T21:02:12.483Z,101642.31
2019-03-19T21:05:16.185Z,101649.52
2019-03-19T21:08:20.868Z,101652.55
2019-03-19T21:11:24.302Z,101655.73
2019-03-19T21:14:27.836Z,101657.06
2019-03-19T21:17:31.325Z,101656.75
2019-03-19T21:20:34.907Z,101661.22
2019-03-19T21:23:38.546Z,101664.02
2019-03-19T21:26:42.132Z,101663.60
2019-03-19T21:29:45.836Z,101664.92
2019-03-19T21:32:49.437Z,101661.89
2019-03-19T21:35:52.938Z,101669.84
2019-03-19T21:38:56.439Z,101670.41
2019-03-19T21:41:59.940Z,101671.47
2019-03-19T21:45:03.455Z,101671.47
2019-03-19T21:48:06.959Z,101674.12
2019-03-19T21:51:10.501Z,101692.77
2019-03-19T21:54:14.188Z,101696.84
2019-03-19T21:57:17.649Z,101688.47
2019-03-19T22:00:21.187Z,101699.56
2019-03-19T22:03:24.650Z,101691.27
2019-03-19T22:06:28.133Z,101696.56
2019-03-19T22:09:33.686Z,101694.86
2019-03-19T22:12:37.129Z,101698.42
2019-03-19T22:15:40.629Z,101701.14
2019-03-19T22:18:44.075Z,101697.69
2019-03-19T22:21:47.695Z,101703.94
2019-03-19T22:24:51.212Z,101703.62
2019-03-19T22:27:54.707Z,101707.59
2019-03-19T22:30:58.206Z,101707.59
2019-03-19T22:34:01.741Z,101709.45
2019-03-19T22:37:05.205Z,101709.94
2019-03-19T22:40:10.137Z,101705.61
2019-03-19T22:43:13.643Z,101706.94
2019-03-19T22:46:21.786Z,101704.70
2019-03-19T22:49:22.499Z,101708.81
2019-03-19T22:52:27.004Z,101707.00
2019-03-19T22:55:30.504Z,101711.47
2019-03-19T22:58:37.290Z,101721.66
2019-03-19T23:01:40.806Z,101718.63
2019-03-19T23:04:46.228Z,101719.56
2019-03-19T23:07:49.727Z,101719.62
2019-03-19T23:10:53.251Z,101714.40
2019-03-19T23:13:56.914Z,101722.73
2019-03-19T23:17:00.544Z,101727.66
2019-03-19T23:20:10.528Z,101734.80
2019-03-19T23:23:13.992Z,101741.05
2019-03-19T23:26:17.502Z,101742.93
2019-03-19T23:29:20.999Z,101744.64
2019-03-19T23:32:24.886Z,101741.98
2019-03-19T23:35:28.510Z,101739.86
2019-03-19T23:38:31.973Z,101742.93
2019-03-19T23:41:35.515Z,101749.20
2019-03-19T23:44:39.169Z,101754.44
2019-03-19T23:47:42.728Z,101753.25
2019-03-19T23:50:46.237Z,101746.63
2019-03-19T23:53:51.772Z,101752.87
2019-03-19T23:56:55.263Z,101755.97
2019-03-19T23:59:58.795Z,101759.63
